Time,TemperatureF,DewpointF,PressureIn,WindDirection,WindDirectionDegrees,WindSpeedMPH,WindSpeedGustMPH,Humidity,HourlyPrecipIn,Conditions,Clouds,dailyrainin,SoftwareType,DateUTC
2013-07-27 00:02:00,62.0,57.0,-100.00,WNW,295,3.0,4.0,83,0.00,,,-99.99,,2013-07-27 05:02:00,
2013-07-27 00:12:00,62.0,57.0,-100.00,WNW,290,5.0,7.0,83,0.00,,,-99.99,,2013-07-27 05:12:00,
2013-07-27 00:43:00,62.0,57.0,-100.00,WNW,300,6.0,9.0,83,0.00,,,-99.99,,2013-07-27 05:43:00,
2013-07-27 01:02:00,62.0,57.0,-100.00,NW,305,6.0,9.0,83,0.00,,,-99.99,,2013-07-27 06:02:00,
2013-07-27 01:12:00,62.0,57.0,-100.00,NW,305,6.0,9.0,83,0.00,,,-99.99,,2013-07-27 06:12:00,
2013-07-27 01:22:00,61.0,56.0,-100.00,NW,305,7.0,9.0,83,0.00,,,-99.99,,2013-07-27 06:22:00,
2013-07-27 01:33:00,61.0,56.0,-100.00,NW,305,7.0,9.0,83,0.00,,,-99.99,,2013-07-27 06:33:00,
2013-07-27 01:43:00,61.0,56.0,-100.00,NW,310,7.0,9.0,83,0.00,,,-99.99,,2013-07-27 06:43:00,
2013-07-27 01:52:00,61.0,56.0,-100.00,NW,310,7.0,9.0,83,0.00,,,-99.99,,2013-07-27 06:52:00,
2013-07-27 02:02:00,60.0,56.0,-100.00,NW,310,6.0,7.0,85,0.00,,,-99.99,,2013-07-27 07:02:00,
2013-07-27 02:12:00,60.0,56.0,-100.00,NW,305,6.0,7.0,86,0.00,,,-99.99,,2013-07-27 07:12:00,
2013-07-27 02:22:00,60.0,56.0,-100.00,NW,305,6.0,10.0,86,0.00,,,-99.99,,2013-07-27 07:22:00,
2013-07-27 02:33:00,60.0,56.0,-100.00,NW,305,8.0,12.0,86,0.00,,,-99.99,,2013-07-27 07:33:00,
2013-07-27 02:43:00,60.0,56.0,-100.00,NW,305,9.0,11.0,86,0.00,,,-99.99,,2013-07-27 07:43:00,
2013-07-27 02:52:00,60.0,56.0,-100.00,NW,305,7.0,9.0,86,0.00,,,-99.99,,2013-07-27 07:52:00,
2013-07-27 03:02:00,60.0,56.0,-100.00,NW,305,7.0,9.0,86,0.00,,,-99.99,,2013-07-27 08:02:00,
2013-07-27 03:12:00,60.0,56.0,-100.00,NW,305,7.0,11.0,86,0.00,,,-99.99,,2013-07-27 08:12:00,
2013-07-27 03:22:00,59.0,56.0,-100.00,WNW,300,7.0,10.0,87,0.00,,,-99.99,,2013-07-27 08:22:00,
2013-07-27 03:32:00,59.0,56.0,-100.00,WNW,300,7.0,10.0,87,0.00,,,-99.99,,2013-07-27 08:32:00,
2013-07-27 03:43:00,59.0,55.0,-100.00,NW,305,7.0,11.0,88,0.00,,,-99.99,,2013-07-27 08:43:00,
2013-07-27 04:02:00,58.0,55.0,-100.00,NW,310,7.0,11.0,89,0.00,,,-99.99,,2013-07-27 09:02:00,
2013-07-27 04:12:00,58.0,55.0,-100.00,NW,310,7.0,10.0,89,0.00,,,-99.99,,2013-07-27 09:12:00,
2013-07-27 04:33:00,58.0,55.0,-100.00,WNW,300,7.0,11.0,90,0.00,,,-99.99,,2013-07-27 09:33:00,
2013-07-27 04:44:00,58.0,55.0,-100.00,NW,310,7.0,11.0,90,0.00,,,-99.99,,2013-07-27 09:44:00,
2013-07-27 04:52:00,58.0,55.0,-100.00,NW,310,7.0,11.0,90,0.00,,,-99.99,,2013-07-27 09:52:00,
2013-07-27 05:02:00,58.0,55.0,-100.00,NW,305,8.0,10.0,90,0.00,,,-99.99,,2013-07-27 10:02:00,
2013-07-27 05:12:00,57.0,55.0,-100.00,NW,310,8.0,11.0,91,0.00,,,-99.99,,2013-07-27 10:12:00,
2013-07-27 05:22:00,57.0,54.0,-100.00,NW,315,6.0,10.0,91,0.00,,,-99.99,,2013-07-27 10:22:00,
2013-07-27 05:32:00,57.0,54.0,-100.00,NW,315,6.0,10.0,91,0.00,,,-99.99,,2013-07-27 10:32:00,
2013-07-27 05:43:00,57.0,54.0,-100.00,NW,310,6.0,10.0,91,0.00,,,-99.99,,2013-07-27 10:43:00,
2013-07-27 06:02:00,57.0,54.0,-100.00,WNW,300,5.0,7.0,92,0.00,,,-99.99,,2013-07-27 11:02:00,
2013-07-27 06:12:00,56.0,54.0,-100.00,NW,305,6.0,7.0,92,0.00,,,-99.99,,2013-07-27 11:12:00,
2013-07-27 06:22:00,56.0,54.0,-100.00,NW,305,6.0,8.0,92,0.00,,,-99.99,,2013-07-27 11:22:00,
2013-07-27 06:32:00,56.0,54.0,-100.00,NW,305,6.0,8.0,92,0.00,,,-99.99,,2013-07-27 11:32:00,
2013-07-27 06:44:00,57.0,55.0,-100.00,NW,305,7.0,8.0,92,0.00,,,-99.99,,2013-07-27 11:44:00,
2013-07-27 06:52:00,57.0,55.0,-100.00,NW,305,7.0,8.0,92,0.00,,,-99.99,,2013-07-27 11:52:00,
2013-07-27 07:02:00,58.0,55.0,-100.00,NW,310,6.0,12.0,92,0.00,,,-99.99,,2013-07-27 12:02:00,
2013-07-27 07:12:00,58.0,55.0,-100.00,NW,310,7.0,10.0,91,0.00,,,-99.99,,2013-07-27 12:12:00,
2013-07-27 07:33:00,58.0,56.0,-100.00,WNW,300,9.0,12.0,90,0.00,,,-99.99,,2013-07-27 12:33:00,
2013-07-27 07:43:00,59.0,55.0,-100.00,NNW,335,7.0,11.0,84,0.00,,,-99.99,,2013-07-27 12:43:00,
2013-07-27 08:02:00,60.0,54.0,-100.00,NW,310,7.0,10.0,80,0.00,,,-99.99,,2013-07-27 13:02:00,
2013-07-27 08:22:00,60.0,53.0,-100.00,NW,315,9.0,12.0,77,0.00,,,-99.99,,2013-07-27 13:22:00,
2013-07-27 08:44:00,62.0,51.0,-100.00,NW,325,6.0,11.0,68,0.00,,,-99.99,,2013-07-27 13:44:00,
2013-07-27 08:53:00,62.0,51.0,-100.00,NNW,340,8.0,12.0,65,0.00,,,-99.99,,2013-07-27 13:53:00,
2013-07-27 09:12:00,63.0,51.0,-100.00,NW,310,7.0,11.0,64,0.00,,,-99.99,,2013-07-27 14:12:00,
2013-07-27 09:22:00,63.0,51.0,-100.00,NW,310,7.0,11.0,64,0.00,,,-99.99,,2013-07-27 14:22:00,
2013-07-27 09:44:00,63.0,52.0,-100.00,WNW,295,11.0,14.0,65,0.00,,,-99.99,,2013-07-27 14:44:00,
2013-07-27 10:12:00,65.0,51.0,-100.00,WNW,300,9.0,17.0,61,0.00,,,-99.99,,2013-07-27 15:12:00,
2013-07-27 10:22:00,65.0,50.0,-100.00,NW,315,11.0,15.0,57,0.00,,,-99.99,,2013-07-27 15:22:00,
2013-07-27 10:33:00,65.0,47.0,-100.00,NW,305,13.0,24.0,52,0.00,,,-99.99,,2013-07-27 15:33:00,
2013-07-27 10:44:00,65.0,47.0,-100.00,NW,315,11.0,17.0,51,0.00,,,-99.99,,2013-07-27 15:44:00,
2013-07-27 11:12:00,66.0,46.0,-100.00,NW,310,16.0,20.0,47,0.00,,,-99.99,,2013-07-27 16:12:00,
2013-07-27 11:22:00,67.0,46.0,-100.00,NNW,345,9.0,20.0,46,0.00,,,-99.99,,2013-07-27 16:22:00,
2013-07-27 11:33:00,67.0,47.0,-100.00,WNW,295,9.0,18.0,48,0.00,,,-99.99,,2013-07-27 16:33:00,
2013-07-27 11:43:00,67.0,46.0,-100.00,WNW,295,14.0,20.0,47,0.00,,,-99.99,,2013-07-27 16:43:00,
2013-07-27 11:54:00,67.0,46.0,-100.00,NW,305,12.0,21.0,46,0.00,,,-99.99,,2013-07-27 16:54:00,
2013-07-27 12:02:00,67.0,46.0,-100.00,NW,305,12.0,21.0,46,0.00,,,-99.99,,2013-07-27 17:02:00,
2013-07-27 12:12:00,67.0,46.0,-100.00,NW,315,14.0,18.0,46,0.00,,,-99.99,,2013-07-27 17:12:00,
2013-07-27 12:22:00,66.0,46.0,-100.00,NW,305,14.0,17.0,47,0.00,,,-99.99,,2013-07-27 17:22:00,
2013-07-27 12:32:00,66.0,46.0,-100.00,NW,305,14.0,17.0,47,0.00,,,-99.99,,2013-07-27 17:32:00,
2013-07-27 12:43:00,67.0,45.0,-100.00,NW,315,14.0,21.0,45,0.00,,,-99.99,,2013-07-27 17:43:00,
2013-07-27 12:53:00,67.0,45.0,-100.00,NNW,330,11.0,18.0,45,0.00,,,-99.99,,2013-07-27 17:53:00,
2013-07-27 13:02:00,67.0,45.0,-100.00,NNW,330,11.0,18.0,45,0.00,,,-99.99,,2013-07-27 18:02:00,
2013-07-27 13:12:00,67.0,45.0,-100.00,WNW,300,17.0,22.0,45,0.00,,,-99.99,,2013-07-27 18:12:00,
2013-07-27 13:22:00,67.0,45.0,-100.00,NNW,330,9.0,19.0,45,0.00,,,-99.99,,2013-07-27 18:22:00,
2013-07-27 13:33:00,67.0,45.0,-100.00,NNW,330,9.0,19.0,45,0.00,,,-99.99,,2013-07-27 18:33:00,
2013-07-27 13:43:00,67.0,45.0,-100.00,NW,315,9.0,22.0,45,0.00,,,-99.99,,2013-07-27 18:43:00,
2013-07-27 14:02:00,69.0,47.0,-100.00,NW,310,9.0,15.0,45,0.00,,,-99.99,,2013-07-27 19:02:00,
2013-07-27 14:12:00,68.0,46.0,-100.00,NW,315,14.0,21.0,45,0.00,,,-99.99,,2013-07-27 19:12:00,
2013-07-27 14:32:00,69.0,46.0,-100.00,NW,315,14.0,22.0,44,0.00,,,-99.99,,2013-07-27 19:32:00,
2013-07-27 14:43:00,69.0,47.0,-100.00,NW,305,12.0,19.0,44,0.00,,,-99.99,,2013-07-27 19:43:00,
2013-07-27 14:53:00,69.0,47.0,-100.00,NW,305,12.0,19.0,44,0.00,,,-99.99,,2013-07-27 19:53:00,
2013-07-27 15:02:00,69.0,47.0,-100.00,WNW,300,9.0,19.0,45,0.00,,,-99.99,,2013-07-27 20:02:00,
2013-07-27 15:12:00,69.0,46.0,-100.00,WNW,300,16.0,21.0,43,0.00,,,-99.99,,2013-07-27 20:12:00,
2013-07-27 15:32:00,69.0,46.0,-100.00,NW,305,10.0,22.0,44,0.00,,,-99.99,,2013-07-27 20:32:00,
2013-07-27 15:43:00,70.0,47.0,-100.00,NW,315,11.0,17.0,43,0.00,,,-99.99,,2013-07-27 20:43:00,
2013-07-27 16:03:00,68.0,45.0,-100.00,NW,305,12.0,22.0,43,0.00,,,-99.99,,2013-07-27 21:03:00,
2013-07-27 16:12:00,70.0,46.0,-100.00,NW,315,14.0,17.0,41,0.00,,,-99.99,,2013-07-27 21:12:00,
2013-07-27 16:33:00,70.0,46.0,-100.00,WNW,300,11.0,16.0,41,0.00,,,-99.99,,2013-07-27 21:33:00,
2013-07-27 16:43:00,70.0,45.0,-100.00,NW,305,10.0,17.0,40,0.00,,,-99.99,,2013-07-27 21:43:00,
2013-07-27 16:52:00,70.0,45.0,-100.00,NW,305,10.0,17.0,40,0.00,,,-99.99,,2013-07-27 21:52:00,
2013-07-27 17:02:00,69.0,45.0,-100.00,WNW,300,11.0,21.0,41,0.00,,,-99.99,,2013-07-27 22:02:00,
2013-07-27 17:12:00,70.0,45.0,-100.00,NW,305,11.0,16.0,40,0.00,,,-99.99,,2013-07-27 22:12:00,
2013-07-27 17:33:00,70.0,44.0,-100.00,NW,305,15.0,22.0,39,0.00,,,-99.99,,2013-07-27 22:33:00,
2013-07-27 17:43:00,70.0,44.0,-100.00,NW,320,14.0,21.0,39,0.00,,,-99.99,,2013-07-27 22:43:00,
2013-07-27 18:02:00,70.0,45.0,-100.00,NW,315,7.0,16.0,40,0.00,,,-99.99,,2013-07-27 23:02:00,
2013-07-27 18:12:00,70.0,45.0,-100.00,NNW,340,10.0,19.0,40,0.00,,,-99.99,,2013-07-27 23:12:00,
2013-07-27 18:32:00,70.0,45.0,-100.00,NNW,345,12.0,19.0,41,0.00,,,-99.99,,2013-07-27 23:32:00,
2013-07-27 18:44:00,69.0,45.0,-100.00,NNW,340,11.0,16.0,41,0.00,,,-99.99,,2013-07-27 23:44:00,
2013-07-27 18:52:00,69.0,45.0,-100.00,NW,310,9.0,18.0,41,0.00,,,-99.99,,2013-07-27 23:52:00,
2013-07-27 19:22:00,69.0,45.0,-100.00,NNW,345,7.0,13.0,41,0.00,,,-99.99,,2013-07-28 00:22:00,
2013-07-27 19:32:00,69.0,44.0,-100.00,NW,305,6.0,13.0,41,0.00,,,-99.99,,2013-07-28 00:32:00,
2013-07-27 19:44:00,68.0,45.0,-100.00,NNW,345,6.0,11.0,42,0.00,,,-99.99,,2013-07-28 00:44:00,
2013-07-27 19:53:00,68.0,44.0,-100.00,NNW,340,7.0,10.0,42,0.00,,,-99.99,,2013-07-28 00:53:00,
2013-07-27 20:22:00,67.0,44.0,-100.00,NNE,20,5.0,8.0,43,0.00,,,-99.99,,2013-07-28 01:22:00,
2013-07-27 20:32:00,67.0,44.0,-100.00,NNE,15,4.0,6.0,44,0.00,,,-99.99,,2013-07-28 01:32:00,
2013-07-27 20:43:00,66.0,44.0,-100.00,North,10,4.0,6.0,44,0.00,,,-99.99,,2013-07-28 01:43:00,
2013-07-27 20:53:00,65.0,44.0,-100.00,North,5,4.0,6.0,46,0.00,,,-99.99,,2013-07-28 01:53:00,
2013-07-27 21:12:00,64.0,45.0,-100.00,NW,310,1.0,4.0,50,0.00,,,-99.99,,2013-07-28 02:12:00,
2013-07-27 21:22:00,64.0,45.0,-100.00,NW,310,1.0,4.0,50,0.00,,,-99.99,,2013-07-28 02:22:00,
2013-07-27 21:32:00,63.0,46.0,-100.00,WSW,255,2.0,2.0,53,0.00,,,-99.99,,2013-07-28 02:32:00,
2013-07-27 21:42:00,63.0,47.0,-100.00,WNW,290,2.0,2.0,56,0.00,,,-99.99,,2013-07-28 02:42:00,
2013-07-27 22:12:00,60.0,49.0,-100.00,WSW,245,0.0,2.0,67,0.00,,,-99.99,,2013-07-28 03:12:00,
2013-07-27 22:22:00,60.0,51.0,-100.00,WSW,245,0.0,1.0,71,0.00,,,-99.99,,2013-07-28 03:22:00,
2013-07-27 22:32:00,60.0,51.0,-100.00,West,260,1.0,1.0,73,0.00,,,-99.99,,2013-07-28 03:32:00,
2013-07-27 22:42:00,59.0,51.0,-100.00,WSW,245,1.0,2.0,75,0.00,,,-99.99,,2013-07-28 03:42:00,
2013-07-27 23:02:00,59.0,52.0,-100.00,WSW,255,2.0,2.0,77,0.00,,,-99.99,,2013-07-28 04:02:00,
2013-07-27 23:12:00,58.0,52.0,-100.00,NW,310,1.0,2.0,80,0.00,,,-99.99,,2013-07-28 04:12:00,
2013-07-27 23:22:00,58.0,53.0,-100.00,NW,310,2.0,2.0,83,0.00,,,-99.99,,2013-07-28 04:22:00,
2013-07-27 23:32:00,58.0,53.0,-100.00,NW,310,2.0,2.0,83,0.00,,,-99.99,,2013-07-28 04:32:00,
2013-07-27 23:43:00,57.0,53.0,-100.00,West,270,1.0,2.0,87,0.00,,,-99.99,,2013-07-28 04:43:00,
2013-07-27 23:53:00,57.0,53.0,-100.00,West,270,1.0,2.0,87,0.00,,,-99.99,,2013-07-28 04:53:00,